Time;durP1;ratioP1;P1;durP2;ratioP2;P2;SDS_P1;SDS_P2;PMS_P1;PMS_P2;Temp;Humidity;BMP_temperature;BMP_pressure;BME280_temperature;BME280_humidity;BME280_pressure;Samples;Min_cycle;Max_cycle;Signal;HPM_P1;HPM_P2
2021/10/06 00:00:06;;;;;;;55.08;32.10;;;11.00;99.90;;;;;;4975184;28;20077;-90
2021/10/06 00:02:32;;;;;;;58.65;32.88;;;11.00;99.90;;;;;;4974959;28;20075;-91
2021/10/06 00:04:58;;;;;;;51.13;30.20;;;11.00;99.90;;;;;;4975224;28;20030;-92
2021/10/06 00:07:23;;;;;;;54.05;33.38;;;11.00;99.90;;;;;;4975044;28;20436;-91
2021/10/06 00:09:49;;;;;;;59.72;31.88;;;11.10;99.90;;;;;;4975256;28;20023;-90
2021/10/06 00:12:14;;;;;;;61.85;34.22;;;11.10;99.90;;;;;;4975500;28;20046;-92
2021/10/06 00:14:40;;;;;;;54.78;32.63;;;11.10;99.90;;;;;;4975256;28;20031;-93
2021/10/06 00:17:05;;;;;;;55.83;32.83;;;11.10;99.90;;;;;;4971693;28;20027;-92
2021/10/06 00:19:31;;;;;;;51.28;32.58;;;11.20;99.90;;;;;;4971839;28;20081;-92
2021/10/06 00:21:57;;;;;;;53.25;31.77;;;11.20;99.90;;;;;;4981255;28;20038;-92
2021/10/06 00:24:24;;;;;;;57.53;32.75;;;11.20;99.90;;;;;;4990777;28;20030;-92
2021/10/06 00:26:49;;;;;;;63.67;34.97;;;11.30;99.90;;;;;;4981791;28;20037;-92
2021/10/06 00:29:15;;;;;;;54.80;32.95;;;11.30;99.90;;;;;;4956405;28;20104;-92
2021/10/06 00:31:40;;;;;;;59.30;33.35;;;11.30;99.90;;;;;;4980683;28;20031;-91
2021/10/06 00:34:06;;;;;;;59.20;34.90;;;11.30;99.90;;;;;;4971075;28;20037;-91
2021/10/06 00:36:32;;;;;;;53.70;33.03;;;11.30;99.90;;;;;;4975836;28;20033;-92
2021/10/06 00:38:57;;;;;;;57.05;34.03;;;11.30;99.90;;;;;;4990930;28;20117;-92
2021/10/06 00:41:23;;;;;;;54.42;33.33;;;11.30;99.90;;;;;;4987446;28;20035;-91
2021/10/06 00:43:48;;;;;;;52.85;32.15;;;11.30;99.90;;;;;;4973682;28;20022;-91
2021/10/06 00:46:14;;;;;;;51.10;32.40;;;11.30;99.90;;;;;;4990763;28;20030;-91
2021/10/06 00:48:40;;;;;;;52.90;33.20;;;11.30;99.90;;;;;;4990229;28;20023;-89
2021/10/06 00:51:06;;;;;;;55.85;33.30;;;11.30;99.90;;;;;;4975080;28;20058;-92
2021/10/06 00:53:32;;;;;;;59.53;33.95;;;11.40;99.90;;;;;;4974204;28;20022;-91
2021/10/06 00:55:57;;;;;;;60.88;35.78;;;11.30;99.90;;;;;;4973770;28;20026;-93
2021/10/06 00:58:23;;;;;;;52.33;32.05;;;11.30;99.90;;;;;;4975197;28;20019;-92
2021/10/06 01:00:48;;;;;;;52.50;32.65;;;11.30;99.90;;;;;;4974948;28;20070;-92
2021/10/06 01:03:17;;;;;;;50.72;31.67;;;11.30;99.90;;;;;;4974730;28;20095;-91
2021/10/06 01:05:43;;;;;;;53.38;34.17;;;11.30;99.90;;;;;;4974842;28;20113;-93
2021/10/06 01:08:09;;;;;;;60.55;34.15;;;11.30;99.90;;;;;;4975015;28;20483;-91
2021/10/06 01:10:35;;;;;;;57.92;33.75;;;11.30;99.90;;;;;;4973599;28;20031;-90
2021/10/06 01:13:00;;;;;;;52.92;31.70;;;11.30;99.90;;;;;;4973249;28;20019;-91
2021/10/06 01:15:26;;;;;;;52.92;32.75;;;11.30;99.90;;;;;;4969888;28;20035;-90
2021/10/06 01:17:52;;;;;;;62.10;34.65;;;11.30;99.90;;;;;;4959543;28;20023;-90
2021/10/06 01:20:18;;;;;;;49.20;31.83;;;11.30;99.90;;;;;;4974630;28;20027;-91
2021/10/06 01:22:44;;;;;;;61.22;33.15;;;11.30;99.90;;;;;;4973275;28;20153;-89
2021/10/06 01:25:12;;;;;;;53.63;32.67;;;11.40;99.90;;;;;;4974319;28;20023;-88
2021/10/06 01:27:38;;;;;;;54.00;32.95;;;11.40;99.90;;;;;;4974390;28;20023;-88
2021/10/06 01:30:10;;;;;;;51.33;30.15;;;11.30;99.90;;;;;;4970389;28;20074;-90
2021/10/06 01:32:37;;;;;;;61.40;33.03;;;11.30;99.90;;;;;;4974034;28;20030;-90
2021/10/06 01:35:06;;;;;;;50.88;30.48;;;11.30;99.90;;;;;;4986749;28;20062;-89
2021/10/06 01:37:32;;;;;;;58.63;33.10;;;11.20;99.90;;;;;;4989802;28;20041;-89
2021/10/06 01:39:59;;;;;;;55.75;31.33;;;11.20;99.90;;;;;;4989049;28;20080;-89
2021/10/06 01:42:25;;;;;;;60.45;34.58;;;11.20;99.90;;;;;;4974768;28;20034;-89
2021/10/06 01:44:50;;;;;;;60.03;33.63;;;11.20;99.90;;;;;;4971504;28;20028;-89
2021/10/06 01:47:20;;;;;;;58.10;34.28;;;11.20;99.90;;;;;;4975974;28;20034;-90
2021/10/06 01:49:47;;;;;;;49.45;29.83;;;11.10;99.90;;;;;;4989509;28;20538;-90
2021/10/06 01:52:18;;;;;;;49.05;29.00;;;11.10;99.90;;;;;;4981564;28;20039;-89
2021/10/06 01:54:43;;;;;;;61.58;32.13;;;11.00;99.90;;;;;;4984463;28;20026;-89
2021/10/06 01:57:09;;;;;;;55.92;30.73;;;11.00;99.90;;;;;;4973052;28;20089;-89
2021/10/06 01:59:35;;;;;;;57.92;31.58;;;11.00;99.90;;;;;;4974345;28;20026;-90
2021/10/06 02:02:01;;;;;;;67.72;33.00;;;11.10;99.90;;;;;;4985006;28;20042;-88
2021/10/06 02:04:27;;;;;;;57.65;30.55;;;11.10;99.90;;;;;;4954619;29;20039;-91
2021/10/06 02:06:53;;;;;;;54.22;28.63;;;11.10;99.90;;;;;;4955015;28;20110;-90
2021/10/06 02:09:18;;;;;;;54.38;26.77;;;11.10;99.90;;;;;;4970181;28;20023;-89
2021/10/06 02:11:44;;;;;;;57.10;30.58;;;11.10;99.90;;;;;;4969843;28;20426;-89
2021/10/06 02:14:09;;;;;;;59.75;32.03;;;11.10;99.90;;;;;;4973528;28;20035;-88
2021/10/06 02:16:35;;;;;;;65.38;30.88;;;11.10;99.90;;;;;;4972963;28;20057;-91
2021/10/06 02:19:00;;;;;;;60.13;30.05;;;11.20;99.90;;;;;;4954919;28;20082;-89
2021/10/06 02:21:26;;;;;;;57.47;27.90;;;11.10;99.90;;;;;;4971663;28;20035;-88
2021/10/06 02:23:51;;;;;;;48.55;26.20;;;11.20;99.90;;;;;;4988737;28;20038;-89
2021/10/06 02:26:17;;;;;;;58.67;27.10;;;11.10;99.90;;;;;;4988036;28;20023;-91
2021/10/06 02:28:42;;;;;;;45.97;24.02;;;11.10;99.90;;;;;;4955040;28;20050;-90
2021/10/06 02:31:08;;;;;;;50.97;23.48;;;11.00;99.90;;;;;;4969824;28;20023;-89
2021/10/06 02:33:33;;;;;;;62.17;25.67;;;11.00;99.90;;;;;;4969800;28;20042;-89
2021/10/06 02:35:59;;;;;;;51.58;22.83;;;11.00;99.90;;;;;;4963758;28;20105;-88
2021/10/06 02:38:25;;;;;;;52.85;23.75;;;11.00;99.90;;;;;;4969913;28;20031;-89
2021/10/06 02:40:50;;;;;;;49.08;23.88;;;11.00;99.90;;;;;;4953711;29;20420;-90
2021/10/06 02:43:16;;;;;;;46.58;21.00;;;11.00;99.90;;;;;;4975104;28;20034;-89
2021/10/06 02:45:41;;;;;;;50.03;22.70;;;10.80;99.90;;;;;;4969516;28;20106;-89
2021/10/06 02:48:07;;;;;;;38.50;21.40;;;10.80;99.90;;;;;;4954646;28;20027;-90
2021/10/06 02:50:33;;;;;;;38.53;22.35;;;10.70;99.90;;;;;;4955723;28;20031;-89
2021/10/06 02:52:58;;;;;;;48.55;22.45;;;10.90;99.90;;;;;;4971832;28;20110;-89
2021/10/06 02:55:24;;;;;;;50.20;24.33;;;11.00;99.90;;;;;;4992684;28;20033;-91
2021/10/06 02:57:50;;;;;;;69.93;25.45;;;11.10;99.90;;;;;;4974696;28;20031;-90
2021/10/06 03:00:15;;;;;;;58.65;28.38;;;11.10;99.90;;;;;;4973460;28;20024;-89
2021/10/06 03:02:41;;;;;;;59.58;29.02;;;11.10;99.90;;;;;;4985105;28;20039;-89
2021/10/06 03:05:08;;;;;;;55.45;30.90;;;11.10;99.90;;;;;;4992105;28;20036;-89
2021/10/06 03:07:34;;;;;;;54.97;29.70;;;11.20;99.90;;;;;;4979688;28;20515;-90
2021/10/06 03:09:59;;;;;;;54.22;31.23;;;11.20;99.90;;;;;;4976226;28;20061;-90
2021/10/06 03:12:25;;;;;;;68.93;33.72;;;11.20;99.90;;;;;;4977201;28;20110;-88
2021/10/06 03:14:51;;;;;;;59.22;32.80;;;11.00;99.90;;;;;;4991638;28;20233;-91
2021/10/06 03:17:16;;;;;;;59.53;32.65;;;11.00;99.90;;;;;;4975747;28;20022;-89
2021/10/06 03:19:42;;;;;;;61.22;31.77;;;10.90;99.90;;;;;;4976091;28;20626;-90
2021/10/06 03:22:08;;;;;;;60.92;30.88;;;10.70;99.90;;;;;;4975727;28;20031;-89
2021/10/06 03:24:33;;;;;;;64.25;31.30;;;10.70;99.90;;;;;;4975142;28;20069;-89
2021/10/06 03:26:59;;;;;;;54.17;32.92;;;10.60;99.90;;;;;;4975775;28;20054;-89
2021/10/06 03:29:24;;;;;;;50.53;28.48;;;10.60;99.90;;;;;;4975819;28;20023;-89
2021/10/06 03:31:50;;;;;;;61.78;31.95;;;10.50;99.90;;;;;;4975632;28;20034;-89
2021/10/06 03:34:15;;;;;;;56.55;32.50;;;10.40;99.90;;;;;;4975548;28;20030;-90
2021/10/06 03:36:41;;;;;;;48.67;30.60;;;10.40;99.90;;;;;;4976214;28;20031;-90
2021/10/06 03:39:06;;;;;;;58.15;34.33;;;10.40;99.90;;;;;;4975767;28;20049;-89
2021/10/06 03:41:32;;;;;;;61.72;34.08;;;10.40;99.90;;;;;;4975685;28;20049;-89
2021/10/06 03:43:57;;;;;;;56.55;33.50;;;10.40;99.90;;;;;;4975104;28;20023;-89
2021/10/06 03:46:23;;;;;;;63.47;36.85;;;10.50;99.90;;;;;;4975084;28;20061;-90
2021/10/06 03:48:51;;;;;;;56.42;33.35;;;10.60;99.90;;;;;;4975139;28;20077;-89
2021/10/06 03:51:17;;;;;;;59.75;34.25;;;10.50;99.90;;;;;;4975111;28;20027;-89
2021/10/06 03:53:43;;;;;;;56.00;32.67;;;10.50;99.90;;;;;;4976430;28;20074;-89
2021/10/06 03:56:08;;;;;;;53.92;33.92;;;10.40;99.90;;;;;;4976135;28;20042;-89
2021/10/06 03:58:34;;;;;;;49.55;33.20;;;10.30;99.90;;;;;;4989223;28;20484;-89
2021/10/06 04:01:00;;;;;;;54.72;32.53;;;10.30;99.90;;;;;;4975016;28;20030;-89
2021/10/06 04:03:26;;;;;;;56.22;33.97;;;10.30;99.90;;;;;;4976342;28;20125;-90
2021/10/06 04:05:51;;;;;;;58.38;34.65;;;10.30;99.90;;;;;;4971702;28;20027;-90
2021/10/06 04:08:17;;;;;;;61.08;33.17;;;10.30;99.90;;;;;;4956748;29;20499;-89
2021/10/06 04:10:44;;;;;;;59.55;32.60;;;10.40;99.90;;;;;;4988064;28;20031;-90
2021/10/06 04:13:09;;;;;;;53.85;33.42;;;10.40;99.90;;;;;;4974859;28;20033;-89
2021/10/06 04:15:35;;;;;;;58.30;33.42;;;10.40;99.90;;;;;;4974384;28;20109;-89
2021/10/06 04:18:04;;;;;;;59.47;35.42;;;10.40;99.90;;;;;;4974733;28;20027;-89
2021/10/06 04:20:30;;;;;;;59.25;33.75;;;10.50;99.90;;;;;;4974893;28;20450;-87
2021/10/06 04:22:55;;;;;;;58.85;34.97;;;10.50;99.90;;;;;;4971785;28;20031;-89
2021/10/06 04:25:21;;;;;;;62.45;32.33;;;10.60;99.90;;;;;;4971254;28;20665;-89
2021/10/06 04:27:46;;;;;;;54.95;32.38;;;10.60;99.90;;;;;;4962898;28;20092;-89
2021/10/06 04:30:13;;;;;;;57.95;33.60;;;10.60;99.90;;;;;;4971583;28;20188;-89
2021/10/06 04:32:39;;;;;;;56.15;31.38;;;10.70;99.90;;;;;;4971297;28;20019;-89
2021/10/06 04:35:05;;;;;;;59.17;33.88;;;10.70;99.90;;;;;;4954834;28;20031;-89
2021/10/06 04:37:31;;;;;;;56.83;33.92;;;10.70;99.90;;;;;;4981786;28;20030;-89
2021/10/06 04:39:56;;;;;;;54.50;30.23;;;10.70;99.90;;;;;;4989863;28;20034;-87
2021/10/06 04:42:22;;;;;;;48.28;30.40;;;10.60;99.90;;;;;;4981237;28;20031;-88
2021/10/06 04:44:49;;;;;;;58.00;31.10;;;10.60;99.90;;;;;;4972969;28;20089;-88
2021/10/06 04:47:14;;;;;;;47.38;29.58;;;10.60;99.90;;;;;;4974106;28;20026;-89
2021/10/06 04:49:40;;;;;;;61.72;32.17;;;10.60;99.90;;;;;;4973837;28;20030;-88
2021/10/06 04:52:05;;;;;;;52.72;29.80;;;10.70;99.90;;;;;;4973850;28;20022;-89
2021/10/06 04:54:31;;;;;;;46.88;29.95;;;10.70;99.90;;;;;;4973877;28;20447;-89
2021/10/06 04:56:57;;;;;;;48.70;29.65;;;10.70;99.90;;;;;;4973913;28;20023;-88
2021/10/06 04:59:22;;;;;;;54.13;28.85;;;10.70;99.90;;;;;;4974927;28;20135;-88
2021/10/06 05:01:48;;;;;;;44.95;28.00;;;10.80;99.90;;;;;;4975994;28;20687;-88
2021/10/06 05:04:13;;;;;;;46.83;27.40;;;10.70;99.90;;;;;;4989901;28;20026;-90
2021/10/06 05:06:39;;;;;;;43.20;24.88;;;10.80;99.90;;;;;;4973505;28;20019;-88
2021/10/06 05:09:05;;;;;;;47.97;25.35;;;10.80;99.90;;;;;;4974766;28;20022;-89
2021/10/06 05:11:31;;;;;;;43.25;26.02;;;10.80;99.90;;;;;;4974336;28;20027;-89
2021/10/06 05:13:58;;;;;;;33.22;23.95;;;10.90;99.90;;;;;;4972319;28;20427;-88
2021/10/06 05:16:24;;;;;;;44.15;25.70;;;10.90;99.90;;;;;;4973296;28;20031;-89
2021/10/06 05:18:50;;;;;;;44.20;24.63;;;11.00;99.90;;;;;;4973479;28;20428;-89
2021/10/06 05:21:16;;;;;;;34.90;22.17;;;10.90;99.90;;;;;;4973296;28;20034;-89
2021/10/06 05:23:42;;;;;;;38.40;22.80;;;10.90;99.90;;;;;;4974287;28;20031;-90
2021/10/06 05:26:07;;;;;;;41.30;23.83;;;11.00;99.90;;;;;;4973490;28;20026;-89
2021/10/06 05:28:33;;;;;;;42.00;22.85;;;10.90;99.90;;;;;;4973143;28;20062;-88
2021/10/06 05:30:59;;;;;;;34.78;21.02;;;11.00;99.90;;;;;;4973256;28;20018;-89
2021/10/06 05:33:24;;;;;;;33.38;22.00;;;11.00;99.90;;;;;;4974093;28;20026;-88
2021/10/06 05:35:50;;;;;;;34.67;22.20;;;10.90;99.90;;;;;;4986804;28;20019;-88
2021/10/06 05:38:16;;;;;;;42.25;21.00;;;11.10;99.90;;;;;;4973269;28;20054;-87
2021/10/06 05:40:41;;;;;;;35.17;21.63;;;11.00;99.90;;;;;;4972884;28;20030;-89
2021/10/06 05:43:13;;;;;;;29.50;19.73;;;11.00;99.90;;;;;;4974490;28;20022;-89
2021/10/06 05:45:39;;;;;;;38.45;21.77;;;11.10;99.90;;;;;;4972928;28;20416;-88
2021/10/06 05:48:06;;;;;;;26.80;20.55;;;11.00;99.90;;;;;;4972630;28;20098;-90
2021/10/06 05:50:32;;;;;;;45.42;21.90;;;11.00;99.90;;;;;;4973260;28;20027;-89
2021/10/06 05:53:02;;;;;;;43.15;21.63;;;11.00;99.90;;;;;;4972883;28;20109;-90
2021/10/06 05:55:28;;;;;;;34.45;21.30;;;11.00;99.90;;;;;;4972997;28;20031;-87
2021/10/06 05:57:56;;;;;;;34.50;20.48;;;11.10;99.90;;;;;;4969493;28;20111;-91
2021/10/06 06:00:22;;;;;;;36.20;21.13;;;11.20;99.90;;;;;;4953578;28;20031;-89
2021/10/06 06:02:48;;;;;;;36.40;19.70;;;11.10;99.90;;;;;;4961362;28;20033;-89
2021/10/06 06:05:18;;;;;;;46.58;21.77;;;11.20;99.90;;;;;;4972634;28;20106;-89
2021/10/06 06:07:44;;;;;;;33.28;20.55;;;11.30;99.90;;;;;;4972883;28;20026;-89
2021/10/06 06:10:11;;;;;;;36.47;20.75;;;11.20;99.90;;;;;;4972743;28;20111;-88
2021/10/06 06:12:37;;;;;;;31.02;19.55;;;11.20;99.90;;;;;;4969501;28;20031;-90
2021/10/06 06:15:04;;;;;;;23.05;17.73;;;11.20;99.90;;;;;;4969354;28;20029;-88
2021/10/06 06:17:29;;;;;;;34.00;19.80;;;11.20;99.90;;;;;;4985761;28;20054;-89
2021/10/06 06:19:55;;;;;;;27.50;17.48;;;11.30;99.90;;;;;;4972943;28;20027;-88
2021/10/06 06:22:21;;;;;;;28.20;18.42;;;11.20;99.90;;;;;;4973619;28;20035;-89
2021/10/06 06:24:46;;;;;;;32.35;18.25;;;11.20;99.90;;;;;;4965223;28;20023;-88
2021/10/06 06:27:12;;;;;;;39.33;18.60;;;11.30;99.90;;;;;;4976401;28;20023;-88
2021/10/06 06:29:37;;;;;;;32.22;18.50;;;11.30;99.90;;;;;;4976507;28;20022;-88
2021/10/06 06:32:06;;;;;;;36.72;18.65;;;11.30;99.90;;;;;;4976310;28;20133;-90
2021/10/06 06:34:32;;;;;;;28.92;18.13;;;11.30;99.90;;;;;;4973131;28;20042;-88
2021/10/06 06:36:57;;;;;;;27.25;16.95;;;11.30;99.90;;;;;;4983312;28;20023;-90
2021/10/06 06:39:23;;;;;;;29.25;17.25;;;11.30;99.90;;;;;;4992788;28;20040;-89
2021/10/06 06:41:50;;;;;;;29.40;16.42;;;11.40;99.90;;;;;;4991818;28;20026;-88
2021/10/06 06:44:18;;;;;;;27.15;15.07;;;11.40;99.90;;;;;;4992168;28;20030;-89
2021/10/06 06:46:44;;;;;;;25.90;15.57;;;11.40;99.90;;;;;;4985245;28;20026;-89
2021/10/06 06:49:09;;;;;;;28.90;14.90;;;11.30;99.90;;;;;;4973071;28;20024;-89
2021/10/06 06:51:35;;;;;;;23.13;13.80;;;11.30;99.90;;;;;;4978768;28;20029;-90
2021/10/06 06:54:01;;;;;;;35.38;14.48;;;11.30;99.90;;;;;;4992083;28;20030;-88
2021/10/06 06:56:27;;;;;;;30.27;13.70;;;11.40;99.90;;;;;;4990903;28;20031;-89
2021/10/06 06:58:53;;;;;;;30.85;13.15;;;11.40;99.90;;;;;;4992226;28;20093;-89
2021/10/06 07:01:18;;;;;;;23.30;12.98;;;11.30;99.90;;;;;;4977208;28;20491;-89
2021/10/06 07:03:44;;;;;;;19.63;12.45;;;11.30;99.90;;;;;;4975573;28;20399;-90
2021/10/06 07:06:10;;;;;;;26.40;12.43;;;11.40;99.90;;;;;;4975055;28;20022;-89
2021/10/06 07:08:35;;;;;;;23.75;12.38;;;11.40;99.90;;;;;;4975663;28;20026;-88
2021/10/06 07:11:04;;;;;;;26.00;13.07;;;11.40;99.90;;;;;;4975625;28;20488;-89
2021/10/06 07:13:30;;;;;;;23.83;12.73;;;11.40;99.90;;;;;;4975223;28;20041;-89
2021/10/06 07:15:56;;;;;;;21.00;11.88;;;11.40;99.90;;;;;;4974817;28;20030;-88
2021/10/06 07:18:22;;;;;;;21.88;12.00;;;11.50;99.90;;;;;;4976928;28;20039;-90
2021/10/06 07:24:45;;;;;;;20.55;10.45;;;11.40;99.90;;;;;;4965639;28;20038;-91
2021/10/06 07:31:26;;;;;;;24.50;11.90;;;11.60;99.90;;;;;;4975584;28;20061;-89
2021/10/06 07:37:37;;;;;;;20.20;10.65;;;11.70;99.90;;;;;;4907372;28;20079;-91
2021/10/06 07:44:58;;;;;;;24.95;11.32;;;11.70;99.90;;;;;;4961119;28;20050;-92
2021/10/06 07:48:41;;;;;;;;;;;;;;;;;;;;;
2021/10/06 07:55:09;;;;;;;18.20;10.15;;;12.10;99.90;;;;;;4821297;29;20042;-93
2021/10/06 07:57:38;;;;;;;25.33;11.02;;;12.10;99.90;;;;;;4825717;29;20046;-92
2021/10/06 08:00:26;;;;;;;;;;;;;;;;;;;;;
2021/10/06 08:12:29;;;;;;;23.63;10.40;;;12.20;99.90;;;;;;5071272;28;20862;-72
2021/10/06 08:14:55;;;;;;;19.25;10.10;;;12.20;99.90;;;;;;5039182;28;60166;-71
2021/10/06 08:17:21;;;;;;;14.82;9.30;;;12.20;99.90;;;;;;5024694;28;73191;-71
2021/10/06 08:19:46;;;;;;;16.88;9.43;;;12.10;99.90;;;;;;5050460;28;20033;-72
2021/10/06 08:22:13;;;;;;;20.13;10.27;;;12.10;99.90;;;;;;5044039;28;20041;-71
2021/10/06 08:24:39;;;;;;;16.55;9.35;;;12.10;99.90;;;;;;5028374;28;20057;-72
2021/10/06 08:27:05;;;;;;;30.38;10.52;;;12.20;99.90;;;;;;5030516;28;20022;-72
2021/10/06 08:29:31;;;;;;;22.02;10.45;;;12.30;99.90;;;;;;5030318;28;20407;-72
2021/10/06 08:31:56;;;;;;;18.65;9.07;;;12.30;99.90;;;;;;5036226;28;20032;-72
2021/10/06 08:34:22;;;;;;;17.08;9.52;;;12.30;99.90;;;;;;5050223;28;20392;-72
2021/10/06 08:36:47;;;;;;;18.00;9.23;;;12.40;99.90;;;;;;5049996;28;20461;-72
2021/10/06 08:39:13;;;;;;;22.38;9.30;;;12.50;99.90;;;;;;5050101;28;20032;-72
2021/10/06 08:41:39;;;;;;;17.70;8.55;;;12.60;99.90;;;;;;5049991;28;20484;-72
2021/10/06 08:44:05;;;;;;;25.05;10.00;;;12.70;99.90;;;;;;5049969;28;20675;-72
2021/10/06 08:46:30;;;;;;;13.35;8.63;;;12.90;99.90;;;;;;5049268;28;20079;-72
2021/10/06 08:48:56;;;;;;;17.48;8.38;;;13.00;99.90;;;;;;5050470;28;20112;-72
2021/10/06 08:51:23;;;;;;;21.45;9.05;;;12.90;99.90;;;;;;5049755;28;20202;-72
2021/10/06 08:53:50;;;;;;;21.00;9.05;;;13.00;99.90;;;;;;5049328;28;20052;-72
2021/10/06 08:56:17;;;;;;;25.02;9.07;;;13.10;99.90;;;;;;5049571;28;20049;-72
2021/10/06 08:58:43;;;;;;;20.20;8.48;;;13.00;99.90;;;;;;5049708;28;20432;-72
2021/10/06 09:01:26;;;;;;;17.90;9.30;;;13.00;99.90;;;;;;5049078;28;20056;-72
2021/10/06 09:04:04;;;;;;;17.50;8.57;;;13.00;99.90;;;;;;5049990;28;20035;-72
2021/10/06 09:06:41;;;;;;;17.73;7.90;;;13.10;99.90;;;;;;5049330;28;20397;-72
2021/10/06 09:09:18;;;;;;;18.50;7.47;;;13.20;99.90;;;;;;5049519;28;20021;-73
2021/10/06 09:11:54;;;;;;;19.52;7.38;;;13.10;99.90;;;;;;5049278;28;20022;-71
2021/10/06 09:14:20;;;;;;;14.45;6.57;;;13.10;99.90;;;;;;5048892;28;20036;-72
2021/10/06 09:16:47;;;;;;;15.05;7.53;;;13.40;99.90;;;;;;5049373;28;20494;-71
2021/10/06 09:19:33;;;;;;;19.10;6.70;;;13.70;99.90;;;;;;5049372;28;20485;-72
2021/10/06 09:21:58;;;;;;;16.55;7.03;;;13.70;99.90;;;;;;5045625;28;20072;-71
2021/10/06 09:24:44;;;;;;;17.45;6.72;;;13.80;99.90;;;;;;5036030;28;20084;-72
2021/10/06 09:27:10;;;;;;;12.05;6.63;;;13.90;99.90;;;;;;5035645;28;20034;-72
2021/10/06 09:29:54;;;;;;;13.50;7.03;;;14.30;99.90;;;;;;5035913;28;20075;-72
2021/10/06 09:32:24;;;;;;;13.73;6.88;;;14.50;99.90;;;;;;5035323;28;20029;-72
2021/10/06 09:35:25;;;;;;;7.70;5.68;;;14.50;99.90;;;;;;5036106;28;20018;-72
2021/10/06 09:37:53;;;;;;;11.18;5.50;;;14.50;99.90;;;;;;5035616;28;20025;-72
2021/10/06 09:40:21;;;;;;;14.50;6.05;;;14.20;99.90;;;;;;5036292;28;20520;-72
2021/10/06 09:43:04;;;;;;;9.15;6.05;;;14.10;99.90;;;;;;5050974;28;20033;-72
2021/10/06 09:45:34;;;;;;;10.88;5.28;;;13.80;99.90;;;;;;5035363;28;20124;-72
2021/10/06 09:48:05;;;;;;;17.95;6.53;;;13.70;99.90;;;;;;5035414;28;20408;-72
2021/10/06 09:50:37;;;;;;;14.38;6.68;;;13.60;99.90;;;;;;5035536;28;20370;-72
2021/10/06 09:53:08;;;;;;;18.58;6.40;;;13.70;99.90;;;;;;5035306;28;20041;-72
2021/10/06 09:55:36;;;;;;;12.23;6.28;;;13.60;99.90;;;;;;5035534;28;20021;-72
2021/10/06 09:58:02;;;;;;;14.63;7.03;;;13.70;99.90;;;;;;5034714;28;20028;-72
2021/10/06 10:00:28;;;;;;;13.73;6.32;;;13.90;99.90;;;;;;5035644;28;20426;-72
2021/10/06 10:02:55;;;;;;;12.30;6.78;;;13.80;99.90;;;;;;5035221;28;20076;-72
2021/10/06 10:05:20;;;;;;;20.15;6.95;;;13.80;99.90;;;;;;5035280;28;20104;-72
2021/10/06 10:07:46;;;;;;;10.57;5.50;;;13.90;99.90;;;;;;5034861;28;20100;-72
2021/10/06 10:10:13;;;;;;;16.75;5.95;;;14.00;99.90;;;;;;5033189;28;20557;-71
2021/10/06 10:12:39;;;;;;;12.20;5.72;;;13.90;99.90;;;;;;5015270;28;20032;-72
2021/10/06 10:15:06;;;;;;;17.27;6.30;;;13.90;99.90;;;;;;5015114;28;20384;-72
2021/10/06 10:17:31;;;;;;;13.15;6.45;;;13.90;99.90;;;;;;5015128;28;20114;-72
2021/10/06 10:20:00;;;;;;;20.35;6.65;;;13.90;99.90;;;;;;5015213;28;20057;-71
2021/10/06 10:22:30;;;;;;;16.10;6.68;;;13.90;99.90;;;;;;5023347;28;20072;-72
2021/10/06 10:24:56;;;;;;;17.85;6.30;;;14.00;99.90;;;;;;5034755;28;20489;-72
2021/10/06 10:27:24;;;;;;;17.13;5.43;;;13.90;99.90;;;;;;5034753;28;20036;-72
2021/10/06 10:29:50;;;;;;;10.77;5.10;;;14.20;99.90;;;;;;5035051;28;20030;-72
2021/10/06 10:32:20;;;;;;;10.40;4.45;;;14.50;99.90;;;;;;5034213;28;20481;-72
2021/10/06 10:35:01;;;;;;;14.63;4.32;;;14.60;99.90;;;;;;5033736;28;20379;-72
2021/10/06 10:37:48;;;;;;;12.10;4.43;;;14.50;99.90;;;;;;5034542;28;20469;-72
2021/10/06 10:40:34;;;;;;;16.60;4.07;;;14.50;99.90;;;;;;5034551;28;20029;-72
2021/10/06 10:43:06;;;;;;;12.90;4.20;;;14.40;99.90;;;;;;5033753;28;20029;-71
2021/10/06 10:45:47;;;;;;;11.57;4.03;;;14.20;99.90;;;;;;5034537;28;20512;-72
2021/10/06 10:48:24;;;;;;;13.50;4.10;;;14.20;99.90;;;;;;5032760;23;20070;-71
2021/10/06 10:50:49;;;;;;;9.55;4.72;;;14.10;99.90;;;;;;4995156;28;20053;-70
2021/10/06 10:53:17;;;;;;;11.25;4.53;;;14.00;99.90;;;;;;4994923;28;20445;-70
2021/10/06 10:56:03;;;;;;;16.70;5.95;;;13.90;99.90;;;;;;4994062;28;20023;-70
2021/10/06 11:13:48;;;;;;;17.88;5.13;;;14.40;99.90;;;;;;4994695;28;19929;-70
2021/10/06 11:20:13;;;;;;;14.38;4.32;;;15.30;99.90;;;;;;4994777;28;20026;-70
2021/10/06 11:22:57;;;;;;;10.93;4.30;;;15.60;99.90;;;;;;4994428;28;20029;-70
2021/10/06 11:31:35;;;;;;;10.70;4.22;;;15.30;99.90;;;;;;4994480;28;20033;-70
2021/10/06 11:34:03;;;;;;;9.20;4.55;;;15.50;99.90;;;;;;4991354;28;20045;-70
2021/10/06 11:36:54;;;;;;;9.55;4.47;;;15.60;99.90;;;;;;4992815;28;20391;-70
2021/10/06 11:42:50;;;;;;;8.52;5.20;;;15.10;99.90;;;;;;4974406;28;20037;-70
2021/10/06 11:45:53;;;;;;;8.93;5.13;;;14.90;99.90;;;;;;4973749;28;20035;-70
2021/10/06 11:58:24;;;;;;;11.43;4.55;;;13.90;99.90;;;;;;4989438;28;20090;-70
2021/10/06 12:04:32;;;;;;;6.05;2.78;;;13.60;99.90;;;;;;4992894;28;19928;-69
2021/10/06 12:07:17;;;;;;;7.60;3.08;;;13.40;99.90;;;;;;4992527;28;20023;-70
2021/10/06 12:10:09;;;;;;;5.47;3.13;;;13.40;99.90;;;;;;4993372;28;20105;-70
2021/10/06 12:12:53;;;;;;;8.60;3.13;;;13.30;99.90;;;;;;4993505;28;20035;-70
2021/10/06 12:15:38;;;;;;;7.68;3.35;;;13.20;99.90;;;;;;4993178;28;20421;-70
2021/10/06 12:18:23;;;;;;;10.38;3.92;;;13.10;99.90;;;;;;4992223;28;20493;-70
2021/10/06 12:20:48;;;;;;;8.73;3.30;;;13.20;99.90;;;;;;4982445;28;20157;-69
2021/10/06 12:23:51;;;;;;;20.50;3.92;;;13.30;99.90;;;;;;4998577;28;20109;-69
2021/10/06 12:29:39;;;;;;;7.20;3.80;;;13.70;99.90;;;;;;4999742;28;20029;-70
2021/10/06 12:47:58;;;;;;;11.35;4.03;;;14.50;99.90;;;;;;4993110;28;20516;-69
2021/10/06 12:51:01;;;;;;;14.15;5.15;;;14.50;99.90;;;;;;4992027;28;20045;-69
2021/10/06 12:56:41;;;;;;;10.73;3.65;;;14.60;99.90;;;;;;4993404;28;20121;-70
2021/10/06 13:02:31;;;;;;;7.05;3.58;;;14.70;99.90;;;;;;4996625;28;20033;-69
2021/10/06 13:04:56;;;;;;;12.88;3.35;;;14.60;99.90;;;;;;4997260;28;20050;-70
2021/10/06 13:10:44;;;;;;;6.28;2.90;;;14.70;99.90;;;;;;4996054;28;20575;-70
2021/10/06 13:22:38;;;;;;;4.43;2.50;;;14.80;99.90;;;;;;4995253;28;20037;-70
2021/10/06 13:25:22;;;;;;;9.38;3.08;;;14.60;99.90;;;;;;4996006;28;20101;-69
2021/10/06 13:28:07;;;;;;;9.05;2.80;;;14.60;99.90;;;;;;4996651;28;20022;-69
2021/10/06 13:30:34;;;;;;;8.15;3.33;;;14.60;99.90;;;;;;4995768;28;20057;-70
2021/10/06 13:44:35;;;;;;;5.68;2.78;;;15.50;99.90;;;;;;4996183;28;19928;-70
2021/10/06 13:47:00;;;;;;;6.40;2.63;;;16.10;99.90;;;;;;4995765;28;20042;-67
2021/10/06 13:49:44;;;;;;;10.25;2.47;;;16.70;99.90;;;;;;4996161;28;20394;-67
2021/10/06 13:52:48;;;;;;;7.05;2.65;;;17.40;99.90;;;;;;4976613;28;20482;-68
2021/10/06 13:58:54;;;;;;;10.38;2.70;;;16.70;99.90;;;;;;4976844;28;20030;-67
2021/10/06 14:01:20;;;;;;;15.55;4.00;;;16.30;99.90;;;;;;4976894;28;20039;-67
2021/10/06 14:04:04;;;;;;;13.73;2.58;;;16.50;99.90;;;;;;4992034;28;20037;-67
2021/10/06 14:15:58;;;;;;;9.00;2.92;;;16.20;99.90;;;;;;4995266;28;20054;-67
2021/10/06 14:28:10;;;;;;;8.48;2.72;;;15.80;99.90;;;;;;4991458;28;20038;-67
2021/10/06 14:30:55;;;;;;;9.07;2.58;;;15.50;99.90;;;;;;4994929;28;20038;-67
2021/10/06 14:33:39;;;;;;;6.30;2.67;;;15.40;99.90;;;;;;4975921;28;20026;-67
2021/10/06 14:43:04;;;;;;;9.25;3.08;;;15.20;99.90;;;;;;4994826;28;20158;-67
2021/10/06 14:48:32;;;;;;;7.43;3.42;;;15.10;99.90;;;;;;4979725;28;20092;-67
2021/10/06 15:03:11;;;;;;;6.07;2.85;;;14.40;99.90;;;;;;4995040;28;20041;-67
2021/10/06 15:06:14;;;;;;;13.75;3.80;;;14.20;99.90;;;;;;4994853;28;20026;-67
2021/10/06 15:09:21;;;;;;;45.97;11.80;;;14.00;99.90;;;;;;4994655;28;20097;-67
2021/10/06 15:18:12;;;;;;;13.43;5.05;;;14.10;99.90;;;;;;4993953;28;20084;-68
2021/10/06 15:20:56;;;;;;;15.48;4.60;;;14.50;99.90;;;;;;4993611;28;20097;-68
2021/10/06 15:27:02;;;;;;;13.93;5.00;;;14.60;99.90;;;;;;4974976;28;20030;-68
2021/10/06 15:32:49;;;;;;;67.80;17.63;;;14.00;99.90;;;;;;4994595;28;20129;-67
2021/10/06 15:35:15;;;;;;;57.25;15.65;;;14.10;99.90;;;;;;4994116;28;20022;-67
2021/10/06 15:55:59;;;;;;;4.50;2.38;;;13.90;99.90;;;;;;4993939;28;20026;-67
2021/10/06 15:59:02;;;;;;;5.33;2.23;;;13.60;99.90;;;;;;4993529;28;20486;-68
2021/10/06 16:04:30;;;;;;;5.88;2.80;;;13.20;99.90;;;;;;4993873;28;20041;-68